Time;durP1;ratioP1;P1;durP2;ratioP2;P2;SDS_P1;SDS_P2;PMS_P1;PMS_P2;Temp;Humidity;BMP_temperature;BMP_pressure;BME280_temperature;BME280_humidity;BME280_pressure;Samples;Min_cycle;Max_cycle;Signal;HPM_P1;HPM_P2
2021/06/20 00:01:26;;;;;;;5.63;3.33;;;22.20;99.90;;;;;;4245926;27;20051;-74
2021/06/20 00:03:29;;;;;;;10.43;3.85;;;22.30;99.90;;;;;;4245856;28;20112;-75
2021/06/20 00:05:35;;;;;;;7.65;3.33;;;22.20;99.90;;;;;;4246002;28;20123;-76
2021/06/20 00:07:39;;;;;;;6.15;3.78;;;22.30;99.90;;;;;;4245975;28;20051;-75
2021/06/20 00:09:42;;;;;;;7.40;3.50;;;22.20;99.90;;;;;;4245878;28;20132;-75
2021/06/20 00:11:49;;;;;;;7.38;3.40;;;22.10;99.90;;;;;;4245044;28;20441;-76
2021/06/20 00:13:52;;;;;;;6.72;3.40;;;22.20;99.90;;;;;;4218687;28;20126;-76
2021/06/20 00:15:55;;;;;;;7.63;3.38;;;22.20;99.90;;;;;;4245590;28;20450;-74
2021/06/20 00:17:59;;;;;;;10.90;3.58;;;22.30;99.90;;;;;;4245458;28;20432;-73
2021/06/20 00:20:05;;;;;;;5.35;3.50;;;22.20;99.90;;;;;;4245318;28;20059;-75
2021/06/20 00:22:08;;;;;;;8.48;3.40;;;22.10;99.90;;;;;;4245409;28;20147;-74
2021/06/20 00:24:11;;;;;;;7.75;4.00;;;21.90;99.90;;;;;;4245303;28;20055;-75
2021/06/20 00:26:14;;;;;;;7.40;2.90;;;22.00;99.90;;;;;;4245827;28;20115;-74
2021/06/20 00:28:19;;;;;;;4.82;2.17;;;21.70;99.90;;;;;;4245390;28;20449;-75
2021/06/20 00:30:25;;;;;;;6.03;2.40;;;21.70;99.90;;;;;;4227561;28;20470;-76
2021/06/20 00:32:28;;;;;;;6.15;2.28;;;21.60;99.90;;;;;;4245714;28;20464;-77
2021/06/20 00:34:31;;;;;;;8.45;2.53;;;21.50;99.90;;;;;;4227743;28;20104;-78
2021/06/20 00:36:34;;;;;;;6.85;2.10;;;21.50;99.90;;;;;;4245789;28;20104;-76
2021/06/20 00:38:37;;;;;;;9.68;2.97;;;21.40;99.90;;;;;;4247709;28;20084;-75
2021/06/20 00:40:40;;;;;;;6.18;2.45;;;21.40;99.90;;;;;;4249379;28;20055;-75
2021/06/20 00:42:43;;;;;;;6.18;2.40;;;21.50;99.90;;;;;;4248919;28;20109;-74
2021/06/20 00:44:49;;;;;;;11.32;2.35;;;21.60;99.90;;;;;;4246913;28;20069;-72
2021/06/20 00:46:52;;;;;;;6.70;2.50;;;21.50;99.90;;;;;;4245706;28;20112;-75
2021/06/20 00:48:55;;;;;;;12.10;2.85;;;21.40;99.90;;;;;;4245050;28;21453;-74
2021/06/20 00:50:58;;;;;;;6.30;2.42;;;21.50;99.90;;;;;;4246239;27;20047;-77
2021/06/20 00:53:02;;;;;;;6.60;2.20;;;21.50;99.90;;;;;;4248682;27;20551;-75
2021/06/20 00:55:07;;;;;;;6.57;2.30;;;21.60;99.90;;;;;;4249359;27;20167;-76
2021/06/20 00:57:10;;;;;;;4.32;2.50;;;21.70;99.90;;;;;;4248639;27;20051;-74
2021/06/20 00:59:13;;;;;;;7.32;2.30;;;21.80;99.90;;;;;;4248391;27;20128;-75
2021/06/20 01:01:17;;;;;;;10.63;2.67;;;21.80;99.90;;;;;;4248575;27;20132;-75
2021/06/20 01:03:21;;;;;;;6.43;1.90;;;21.80;99.90;;;;;;4230250;28;20769;-75
2021/06/20 01:05:24;;;;;;;6.53;2.40;;;21.50;99.90;;;;;;4230476;28;20489;-75
2021/06/20 01:07:27;;;;;;;8.05;2.30;;;21.50;99.90;;;;;;4248426;27;20537;-73
2021/06/20 01:09:30;;;;;;;8.90;2.22;;;21.60;99.90;;;;;;4248568;27;20051;-75
2021/06/20 01:11:34;;;;;;;5.03;2.08;;;21.40;99.90;;;;;;4248539;27;20059;-75
2021/06/20 01:13:37;;;;;;;6.28;2.00;;;21.50;99.90;;;;;;4248117;27;20059;-75
2021/06/20 01:15:42;;;;;;;6.13;2.22;;;21.30;99.90;;;;;;4248075;27;20055;-71
2021/06/20 01:17:48;;;;;;;7.47;2.08;;;21.40;99.90;;;;;;4248007;27;20108;-75
2021/06/20 01:19:51;;;;;;;5.60;1.60;;;21.40;99.90;;;;;;4258311;27;20058;-75
2021/06/20 01:21:54;;;;;;;4.07;1.67;;;21.30;99.90;;;;;;4265970;27;20483;-74
2021/06/20 01:23:58;;;;;;;5.80;2.22;;;21.20;99.90;;;;;;4265231;27;20058;-75
2021/06/20 01:26:02;;;;;;;5.10;2.22;;;21.10;99.90;;;;;;4265632;27;20058;-76
2021/06/20 01:28:09;;;;;;;8.57;1.77;;;21.00;99.90;;;;;;4265109;27;20130;-77
2021/06/20 01:30:16;;;;;;;4.78;2.15;;;21.10;99.90;;;;;;4265535;27;20631;-74
2021/06/20 01:32:19;;;;;;;8.90;1.85;;;21.10;99.90;;;;;;4266149;27;20103;-74
2021/06/20 01:34:24;;;;;;;4.43;1.70;;;21.00;99.90;;;;;;4265634;27;20047;-74
2021/06/20 01:36:28;;;;;;;6.05;1.80;;;21.10;99.90;;;;;;4265706;27;20104;-74
2021/06/20 01:38:32;;;;;;;4.60;1.80;;;21.20;99.90;;;;;;4265693;27;20083;-75
2021/06/20 01:40:36;;;;;;;3.85;1.42;;;21.20;99.90;;;;;;4265761;27;20062;-73
2021/06/20 01:42:40;;;;;;;4.55;1.75;;;21.20;99.90;;;;;;4265656;27;20051;-77
2021/06/20 01:44:45;;;;;;;5.88;1.90;;;21.10;99.90;;;;;;4265606;27;20383;-72
2021/06/20 01:46:48;;;;;;;9.32;1.70;;;21.10;99.90;;;;;;4266169;27;20066;-74
2021/06/20 01:48:52;;;;;;;3.58;1.40;;;21.10;99.90;;;;;;4223178;27;20125;-77
2021/06/20 01:50:55;;;;;;;5.43;1.65;;;21.10;99.90;;;;;;4248064;27;20517;-73
2021/06/20 01:53:03;;;;;;;6.45;1.45;;;21.00;99.90;;;;;;4247621;27;20171;-72
2021/06/20 01:55:08;;;;;;;4.90;1.40;;;21.00;99.90;;;;;;4248201;27;20051;-76
2021/06/20 01:57:13;;;;;;;6.30;1.33;;;21.10;99.90;;;;;;4247821;27;20484;-76
2021/06/20 01:59:18;;;;;;;5.68;1.65;;;20.90;99.90;;;;;;4247530;27;20051;-73
2021/06/20 02:01:21;;;;;;;7.40;1.60;;;20.90;99.90;;;;;;4247496;27;20425;-76
2021/06/20 02:03:27;;;;;;;1.70;1.40;;;20.90;99.90;;;;;;4246772;27;20121;-75
2021/06/20 02:05:30;;;;;;;4.22;1.60;;;20.90;99.90;;;;;;4247902;27;20496;-75
2021/06/20 02:07:36;;;;;;;4.45;1.80;;;20.90;99.90;;;;;;4247520;27;20055;-75
2021/06/20 02:09:39;;;;;;;3.97;1.60;;;20.90;99.90;;;;;;4247611;27;20690;-75
2021/06/20 02:11:42;;;;;;;3.42;1.42;;;20.90;99.90;;;;;;4229464;28;20055;-74
2021/06/20 02:13:47;;;;;;;7.65;1.73;;;21.00;99.90;;;;;;4247084;27;20124;-75
2021/06/20 02:15:50;;;;;;;2.78;1.42;;;21.00;99.90;;;;;;4247085;27;20066;-74
2021/06/20 02:17:53;;;;;;;6.75;1.80;;;21.00;99.90;;;;;;4247076;27;20055;-74
2021/06/20 02:19:59;;;;;;;4.20;1.50;;;21.00;99.90;;;;;;4247355;27;20055;-74
2021/06/20 02:22:03;;;;;;;6.13;1.70;;;20.90;99.90;;;;;;4247182;27;20069;-75
2021/06/20 02:24:06;;;;;;;5.60;1.50;;;20.80;99.90;;;;;;4247042;27;20055;-76
2021/06/20 02:26:09;;;;;;;3.22;1.80;;;20.80;99.90;;;;;;4247788;27;20051;-75
2021/06/20 02:28:12;;;;;;;1.98;1.52;;;20.80;99.90;;;;;;4248662;27;20116;-74
2021/06/20 02:30:18;;;;;;;6.57;1.90;;;20.70;99.90;;;;;;4248103;27;20055;-76
2021/06/20 02:32:23;;;;;;;3.80;1.80;;;20.60;99.90;;;;;;4249566;27;20055;-74
2021/06/20 02:34:26;;;;;;;3.13;1.80;;;20.70;99.90;;;;;;4247965;27;20063;-74
2021/06/20 02:36:30;;;;;;;7.70;1.42;;;20.50;99.90;;;;;;4247821;27;20575;-77
2021/06/20 02:38:33;;;;;;;8.52;1.42;;;20.50;99.90;;;;;;4250874;27;20408;-76
2021/06/20 02:40:36;;;;;;;6.65;1.73;;;20.50;99.90;;;;;;4252323;27;20043;-75
2021/06/20 02:42:40;;;;;;;2.63;1.50;;;20.50;99.90;;;;;;4233118;28;20048;-77
2021/06/20 02:44:44;;;;;;;7.28;1.50;;;20.50;99.90;;;;;;4249840;27;20053;-74
2021/06/20 02:46:48;;;;;;;4.20;1.90;;;20.40;99.90;;;;;;4249218;27;20062;-74
2021/06/20 02:48:51;;;;;;;4.45;1.25;;;20.40;99.90;;;;;;4248994;27;20055;-74
2021/06/20 02:50:54;;;;;;;5.18;1.50;;;20.50;99.90;;;;;;4246988;27;20055;-77
2021/06/20 02:52:57;;;;;;;9.57;1.90;;;20.50;99.90;;;;;;4246679;27;20062;-75
2021/06/20 02:55:02;;;;;;;3.17;1.30;;;20.50;99.90;;;;;;4247082;27;20047;-74
2021/06/20 02:57:05;;;;;;;5.88;1.40;;;20.40;99.90;;;;;;4246691;27;20047;-74
2021/06/20 02:59:08;;;;;;;3.63;1.20;;;20.40;99.90;;;;;;4246424;27;20468;-75
2021/06/20 03:01:11;;;;;;;9.15;1.77;;;20.30;99.90;;;;;;4246444;27;20119;-76
2021/06/20 03:03:16;;;;;;;5.22;1.73;;;20.50;99.90;;;;;;4246544;27;20107;-76
2021/06/20 03:05:19;;;;;;;5.47;1.30;;;20.30;99.90;;;;;;4246443;27;20055;-76
2021/06/20 03:07:23;;;;;;;7.30;1.33;;;20.30;99.90;;;;;;4246158;27;20078;-76
2021/06/20 03:09:26;;;;;;;6.93;1.42;;;20.40;99.90;;;;;;4246452;27;20059;-73
2021/06/20 03:11:29;;;;;;;6.07;1.30;;;20.10;99.90;;;;;;4246979;27;20055;-73
2021/06/20 03:13:32;;;;;;;2.75;1.33;;;20.10;99.90;;;;;;4245910;27;20055;-72
2021/06/20 03:15:39;;;;;;;5.20;1.30;;;20.20;99.90;;;;;;4246332;27;20062;-76
2021/06/20 03:17:42;;;;;;;5.22;1.55;;;20.30;99.90;;;;;;4246455;27;20123;-76
2021/06/20 03:19:48;;;;;;;5.65;1.63;;;20.40;99.90;;;;;;4248784;27;20419;-76
2021/06/20 03:21:55;;;;;;;5.55;1.80;;;20.20;99.90;;;;;;4251594;27;20059;-75
2021/06/20 03:23:58;;;;;;;4.95;1.70;;;20.10;99.90;;;;;;4250871;27;20055;-75
2021/06/20 03:26:01;;;;;;;9.73;1.60;;;20.20;99.90;;;;;;4251515;27;20104;-74
2021/06/20 03:28:04;;;;;;;5.07;1.10;;;20.20;99.90;;;;;;4250337;27;20051;-72
2021/06/20 03:30:08;;;;;;;4.18;1.50;;;20.10;99.90;;;;;;4248510;27;20043;-76
2021/06/20 03:32:12;;;;;;;6.28;1.80;;;20.10;99.90;;;;;;4248147;27;20055;-74
2021/06/20 03:34:15;;;;;;;7.03;1.65;;;20.10;99.90;;;;;;4249630;27;20062;-77
2021/06/20 03:36:20;;;;;;;5.93;1.92;;;20.00;99.90;;;;;;4249650;27;20515;-75
2021/06/20 03:38:23;;;;;;;5.80;1.70;;;20.10;99.90;;;;;;4246934;27;20051;-76
2021/06/20 03:40:26;;;;;;;3.20;1.70;;;20.10;99.90;;;;;;4246612;27;20054;-73
2021/06/20 03:42:29;;;;;;;7.95;1.20;;;20.20;99.90;;;;;;4245921;27;20495;-76
2021/06/20 03:44:32;;;;;;;3.30;1.35;;;20.20;99.90;;;;;;4246317;27;20058;-76
2021/06/20 03:46:36;;;;;;;12.15;1.30;;;20.20;99.90;;;;;;4248750;27;20415;-75
2021/06/20 03:48:40;;;;;;;4.28;1.38;;;20.30;99.90;;;;;;4251026;27;20055;-74
2021/06/20 03:50:43;;;;;;;5.32;1.45;;;20.40;99.90;;;;;;4251540;27;20043;-75
2021/06/20 03:52:47;;;;;;;5.13;1.10;;;20.40;99.90;;;;;;4247400;27;20556;-76
2021/06/20 03:54:50;;;;;;;7.88;1.33;;;20.50;99.90;;;;;;4246171;27;20055;-72
2021/06/20 03:56:54;;;;;;;7.47;1.60;;;20.50;99.90;;;;;;4246649;27;20059;-75
2021/06/20 03:58:57;;;;;;;3.97;1.40;;;20.60;99.90;;;;;;4247123;27;20595;-77
2021/06/20 04:01:00;;;;;;;4.05;1.60;;;20.70;99.90;;;;;;4247905;27;20046;-77
2021/06/20 04:03:05;;;;;;;3.70;1.55;;;20.70;99.90;;;;;;4246698;27;20470;-75
2021/06/20 04:05:09;;;;;;;5.22;1.60;;;20.80;99.90;;;;;;4247198;27;20480;-76
2021/06/20 04:07:13;;;;;;;6.03;1.45;;;20.90;99.90;;;;;;4248497;28;20059;-75
2021/06/20 04:09:17;;;;;;;9.23;1.65;;;20.80;99.90;;;;;;4252768;28;20051;-73
2021/06/20 04:11:20;;;;;;;3.55;1.80;;;20.80;99.90;;;;;;4254989;28;20069;-76
2021/06/20 04:13:23;;;;;;;5.90;1.50;;;20.90;99.90;;;;;;4253947;28;20062;-75
2021/06/20 04:15:27;;;;;;;3.72;1.45;;;20.90;99.90;;;;;;4247400;28;20059;-75
2021/06/20 04:17:33;;;;;;;4.40;1.73;;;20.90;99.90;;;;;;4248469;28;20063;-77
2021/06/20 04:19:37;;;;;;;6.63;1.50;;;21.00;99.90;;;;;;4245985;28;20051;-76
2021/06/20 04:21:40;;;;;;;4.28;1.77;;;20.90;99.90;;;;;;4246340;28;20062;-75
2021/06/20 04:23:45;;;;;;;2.10;1.60;;;20.90;99.90;;;;;;4245973;28;20051;-76
2021/06/20 04:25:51;;;;;;;5.57;2.10;;;20.90;99.90;;;;;;4229603;28;20063;-76
2021/06/20 04:27:59;;;;;;;4.90;1.45;;;20.80;99.90;;;;;;4231276;27;20056;-72
2021/06/20 04:30:04;;;;;;;6.68;1.73;;;20.70;99.90;;;;;;4230970;27;20056;-74
2021/06/20 04:32:07;;;;;;;5.18;1.60;;;20.70;99.90;;;;;;4249446;27;20060;-76
2021/06/20 04:34:10;;;;;;;5.38;1.50;;;20.70;99.90;;;;;;4249059;27;20124;-78
2021/06/20 04:36:13;;;;;;;3.17;1.52;;;20.70;99.90;;;;;;4249022;27;20051;-74
2021/06/20 04:38:18;;;;;;;4.40;1.70;;;20.60;99.90;;;;;;4248630;27;20613;-76
2021/06/20 04:40:22;;;;;;;4.97;1.73;;;20.60;99.90;;;;;;4248842;27;20579;-76
2021/06/20 04:42:33;;;;;;;5.82;1.70;;;20.70;99.90;;;;;;4248681;27;20051;-75
2021/06/20 04:44:42;;;;;;;3.05;1.42;;;20.60;99.90;;;;;;4230694;28;20048;-76
2021/06/20 04:46:45;;;;;;;5.40;1.83;;;20.40;99.90;;;;;;4230817;28;20059;-76
2021/06/20 04:48:49;;;;;;;8.77;1.95;;;20.40;99.90;;;;;;4249502;27;20487;-76
2021/06/20 04:50:53;;;;;;;8.93;1.80;;;20.40;99.90;;;;;;4251417;27;20051;-76
2021/06/20 04:52:56;;;;;;;3.22;1.52;;;20.40;99.90;;;;;;4253075;27;20047;-77
2021/06/20 04:54:59;;;;;;;8.13;1.90;;;20.60;99.90;;;;;;4249726;27;20086;-76
2021/06/20 04:57:03;;;;;;;5.65;1.95;;;20.60;99.90;;;;;;4248805;27;20047;-77
2021/06/20 04:59:09;;;;;;;4.18;1.75;;;20.60;99.90;;;;;;4248833;27;20077;-76
2021/06/20 05:01:12;;;;;;;3.10;1.52;;;20.70;99.90;;;;;;4248770;27;20100;-75
2021/06/20 05:03:15;;;;;;;5.78;1.60;;;20.60;99.90;;;;;;4248526;27;20058;-74
2021/06/20 05:05:18;;;;;;;5.55;1.67;;;20.50;99.90;;;;;;4248405;27;20055;-73
2021/06/20 05:07:22;;;;;;;6.68;1.67;;;20.50;99.90;;;;;;4248404;27;20047;-75
2021/06/20 05:09:25;;;;;;;4.40;1.83;;;20.40;99.90;;;;;;4248256;27;20100;-77
2021/06/20 05:11:28;;;;;;;10.68;1.63;;;20.30;99.90;;;;;;4248329;27;20408;-75
2021/06/20 05:13:32;;;;;;;4.40;1.77;;;20.40;99.90;;;;;;4248273;27;20055;-73
2021/06/20 05:15:36;;;;;;;4.00;2.08;;;20.30;99.90;;;;;;4248148;27;20055;-76
2021/06/20 05:17:39;;;;;;;4.55;1.70;;;20.30;99.90;;;;;;4248244;27;20043;-72
2021/06/20 05:19:43;;;;;;;7.60;2.42;;;20.30;99.90;;;;;;4251284;27;20507;-75
2021/06/20 05:21:51;;;;;;;10.00;1.92;;;20.40;99.90;;;;;;4253179;27;20055;-74
2021/06/20 05:23:54;;;;;;;6.20;1.95;;;20.50;99.90;;;;;;4252569;27;20055;-75
2021/06/20 05:25:57;;;;;;;8.23;2.00;;;20.50;99.90;;;;;;4252180;27;20062;-76
2021/06/20 05:28:00;;;;;;;5.47;2.08;;;20.50;99.90;;;;;;4252149;27;20059;-77
2021/06/20 05:30:05;;;;;;;6.57;1.73;;;20.40;99.90;;;;;;4251272;27;20467;-76
2021/06/20 05:32:09;;;;;;;8.18;1.85;;;20.50;99.90;;;;;;4248860;27;20055;-75
2021/06/20 05:34:12;;;;;;;5.10;1.90;;;20.50;99.90;;;;;;4248190;27;20055;-76
2021/06/20 05:36:15;;;;;;;5.70;1.98;;;20.40;99.90;;;;;;4247673;27;20051;-75
2021/06/20 05:38:18;;;;;;;5.88;2.33;;;20.50;99.90;;;;;;4247499;27;20047;-76
2021/06/20 05:40:21;;;;;;;5.88;1.95;;;20.50;99.90;;;;;;4248157;27;20683;-74
2021/06/20 05:42:24;;;;;;;4.32;1.80;;;20.40;99.90;;;;;;4247788;27;20055;-77
2021/06/20 05:44:29;;;;;;;10.23;2.10;;;20.40;99.90;;;;;;4247877;27;20070;-74
2021/06/20 05:46:32;;;;;;;5.00;2.00;;;20.50;99.90;;;;;;4248169;27;20048;-75
2021/06/20 05:48:37;;;;;;;8.57;2.10;;;20.50;99.90;;;;;;4247566;27;20051;-72
2021/06/20 05:50:40;;;;;;;5.60;1.90;;;20.40;99.90;;;;;;4248722;27;20047;-75
2021/06/20 05:52:43;;;;;;;6.65;1.90;;;20.30;99.90;;;;;;4250419;27;20047;-74
2021/06/20 05:54:50;;;;;;;7.82;2.13;;;20.30;99.90;;;;;;4233866;28;20052;-74
2021/06/20 05:56:53;;;;;;;9.73;2.17;;;20.40;99.90;;;;;;4250819;27;20058;-74
2021/06/20 05:58:56;;;;;;;6.63;1.80;;;20.50;99.90;;;;;;4247640;27;20047;-76
2021/06/20 06:01:00;;;;;;;5.97;1.70;;;20.50;99.90;;;;;;4247440;27;20500;-75
2021/06/20 06:03:03;;;;;;;10.43;1.83;;;20.40;99.90;;;;;;4247726;27;20092;-77
2021/06/20 06:05:10;;;;;;;6.47;2.03;;;20.30;99.90;;;;;;4229624;28;20464;-77
2021/06/20 06:07:13;;;;;;;9.30;2.33;;;20.30;99.90;;;;;;4229441;28;20056;-76
2021/06/20 06:09:16;;;;;;;8.65;2.38;;;20.40;99.90;;;;;;4247265;27;20072;-75
2021/06/20 06:11:19;;;;;;;8.40;2.30;;;20.50;99.90;;;;;;4247898;27;20055;-75
2021/06/20 06:13:26;;;;;;;7.68;1.90;;;20.70;99.90;;;;;;4247211;27;20051;-76
2021/06/20 06:15:30;;;;;;;5.05;1.90;;;20.70;99.90;;;;;;4248473;27;20063;-78
2021/06/20 06:17:33;;;;;;;9.00;1.85;;;20.70;99.90;;;;;;4247583;27;20735;-75
2021/06/20 06:19:36;;;;;;;9.77;2.30;;;20.90;99.90;;;;;;4248106;27;20051;-76
2021/06/20 06:21:41;;;;;;;5.10;2.08;;;20.90;99.90;;;;;;4250525;27;20051;-75
2021/06/20 06:23:44;;;;;;;5.72;2.08;;;20.80;99.90;;;;;;4231707;27;20063;-75
2021/06/20 06:25:48;;;;;;;5.53;2.00;;;20.80;99.90;;;;;;4249399;27;20051;-74
2021/06/20 06:27:51;;;;;;;13.25;2.08;;;20.70;99.90;;;;;;4247804;27;20051;-75
2021/06/20 06:29:54;;;;;;;7.00;2.08;;;20.70;99.90;;;;;;4247564;27;20451;-74
2021/06/20 06:31:57;;;;;;;5.50;1.73;;;20.60;99.90;;;;;;4247209;27;20051;-76
2021/06/20 06:34:00;;;;;;;7.90;2.58;;;20.60;99.90;;;;;;4247652;27;20101;-73
2021/06/20 06:36:04;;;;;;;10.63;2.20;;;20.60;99.90;;;;;;4247192;27;20069;-75
2021/06/20 06:38:08;;;;;;;8.07;2.30;;;20.70;99.90;;;;;;4229129;28;20491;-73
2021/06/20 06:40:12;;;;;;;6.05;1.85;;;20.80;99.90;;;;;;4247197;27;20084;-75
2021/06/20 06:42:15;;;;;;;4.15;1.90;;;21.00;99.90;;;;;;4247066;27;20483;-74
2021/06/20 06:44:18;;;;;;;6.05;2.10;;;21.00;99.90;;;;;;4246989;27;20063;-76
2021/06/20 06:46:21;;;;;;;6.45;2.05;;;21.00;99.90;;;;;;4247167;27;20051;-75
2021/06/20 06:48:25;;;;;;;7.93;2.20;;;20.90;99.90;;;;;;4238647;27;20048;-77
2021/06/20 06:50:28;;;;;;;7.43;1.65;;;20.80;99.90;;;;;;4229206;28;20490;-74
2021/06/20 06:52:31;;;;;;;9.73;2.00;;;20.90;99.90;;;;;;4247139;27;20055;-74
2021/06/20 06:54:36;;;;;;;11.00;1.98;;;20.90;99.90;;;;;;4248324;27;20673;-73
2021/06/20 06:56:39;;;;;;;7.03;1.80;;;21.00;99.90;;;;;;4253110;27;20051;-75
2021/06/20 06:58:42;;;;;;;6.60;2.25;;;21.00;99.90;;;;;;4233944;28;20052;-76
2021/06/20 07:00:45;;;;;;;3.72;2.08;;;21.00;99.90;;;;;;4251069;27;20071;-76
2021/06/20 07:02:48;;;;;;;9.10;2.22;;;21.00;99.90;;;;;;4246689;27;20051;-74
2021/06/20 07:04:51;;;;;;;6.43;2.10;;;21.00;99.90;;;;;;4246794;27;20055;-76
2021/06/20 07:07:00;;;;;;;6.35;2.40;;;21.10;99.90;;;;;;4229688;27;20055;-74
2021/06/20 07:09:04;;;;;;;7.63;2.20;;;21.10;99.90;;;;;;4247908;27;20059;-75
2021/06/20 07:11:08;;;;;;;9.23;1.80;;;21.30;99.90;;;;;;4247951;27;20051;-76
2021/06/20 07:13:11;;;;;;;11.63;3.13;;;21.40;99.90;;;;;;4230475;28;20544;-77
2021/06/20 07:15:15;;;;;;;9.25;2.58;;;21.40;99.90;;;;;;4248307;27;20430;-75
2021/06/20 07:17:19;;;;;;;9.95;2.13;;;21.40;99.90;;;;;;4247697;27;20051;-76
2021/06/20 07:19:22;;;;;;;4.82;1.98;;;21.50;99.90;;;;;;4248071;27;20051;-74
2021/06/20 07:21:25;;;;;;;8.45;1.85;;;21.40;99.90;;;;;;4247383;27;20054;-76
2021/06/20 07:23:28;;;;;;;5.38;2.17;;;21.70;99.90;;;;;;4228568;28;20153;-73
2021/06/20 07:25:31;;;;;;;11.48;2.28;;;21.80;99.90;;;;;;4246764;27;20115;-73
2021/06/20 07:27:36;;;;;;;9.15;2.05;;;22.00;99.90;;;;;;4246526;27;20055;-75
2021/06/20 07:29:41;;;;;;;4.07;1.85;;;22.00;99.90;;;;;;4246531;27;20055;-74
2021/06/20 07:31:44;;;;;;;6.03;1.95;;;22.20;99.90;;;;;;4246907;27;20055;-75
2021/06/20 07:33:48;;;;;;;4.57;1.60;;;22.20;99.90;;;;;;4246348;27;20510;-74
2021/06/20 07:35:53;;;;;;;7.30;1.80;;;22.20;99.90;;;;;;4246101;27;20055;-75
2021/06/20 07:37:56;;;;;;;6.25;2.25;;;22.30;99.60;;;;;;4246395;27;20059;-75
2021/06/20 07:40:00;;;;;;;7.32;2.22;;;22.50;99.90;;;;;;4228234;27;20051;-76
2021/06/20 07:42:04;;;;;;;7.18;2.50;;;22.60;99.70;;;;;;4246928;27;20119;-74
2021/06/20 07:44:08;;;;;;;4.85;1.73;;;22.40;99.20;;;;;;4246679;27;20066;-78
2021/06/20 07:46:11;;;;;;;8.48;2.00;;;22.40;98.90;;;;;;4246724;27;20055;-75
2021/06/20 07:48:14;;;;;;;5.45;2.08;;;22.60;99.50;;;;;;4228176;28;20059;-75
2021/06/20 07:50:18;;;;;;;3.20;1.40;;;22.70;98.90;;;;;;4245920;27;20055;-75
2021/06/20 07:52:21;;;;;;;5.90;1.88;;;22.80;99.20;;;;;;4245869;27;20602;-73
2021/06/20 07:54:24;;;;;;;7.13;2.05;;;22.70;98.80;;;;;;4246700;27;20522;-75
2021/06/20 07:56:27;;;;;;;6.15;1.90;;;22.60;99.40;;;;;;4246237;27;20077;-75
2021/06/20 07:58:30;;;;;;;5.90;1.90;;;22.70;98.60;;;;;;4246655;27;20561;-75
2021/06/20 08:00:38;;;;;;;5.22;1.65;;;22.80;98.60;;;;;;4250095;27;20047;-74
2021/06/20 08:02:42;;;;;;;8.63;1.73;;;22.90;98.40;;;;;;4250976;27;20051;-74
2021/06/20 08:04:46;;;;;;;4.95;1.58;;;22.90;98.60;;;;;;4248366;27;20499;-74
2021/06/20 08:06:49;;;;;;;7.20;2.00;;;23.00;98.60;;;;;;4246530;28;20047;-75
2021/06/20 08:08:55;;;;;;;3.95;1.88;;;23.10;98.60;;;;;;4246400;28;20427;-73
2021/06/20 08:11:00;;;;;;;10.32;2.08;;;23.40;97.80;;;;;;4246772;28;20047;-74
2021/06/20 08:13:03;;;;;;;5.13;1.85;;;23.40;97.90;;;;;;4229601;28;20061;-76
2021/06/20 08:15:08;;;;;;;4.75;1.45;;;23.40;97.70;;;;;;4213878;28;20056;-74
2021/06/20 08:17:12;;;;;;;10.48;1.75;;;23.50;97.00;;;;;;4232363;28;20074;-76
2021/06/20 08:19:15;;;;;;;8.57;2.13;;;23.60;97.30;;;;;;4238813;28;20043;-72
2021/06/20 08:21:19;;;;;;;9.00;1.85;;;23.60;96.60;;;;;;4250386;28;20396;-75
2021/06/20 08:23:22;;;;;;;4.68;1.50;;;23.60;96.70;;;;;;4248407;28;20050;-75
2021/06/20 08:25:25;;;;;;;6.15;1.80;;;23.60;97.50;;;;;;4247419;28;20051;-75
2021/06/20 08:27:28;;;;;;;7.75;2.25;;;23.70;97.20;;;;;;4245966;28;20514;-73
2021/06/20 08:29:32;;;;;;;5.97;1.65;;;23.80;97.10;;;;;;4244994;28;20457;-73
2021/06/20 08:31:35;;;;;;;8.00;1.90;;;23.90;96.90;;;;;;4229752;28;20353;-74
2021/06/20 08:33:40;;;;;;;5.10;1.77;;;24.00;96.80;;;;;;4245785;28;20062;-72
2021/06/20 08:35:43;;;;;;;6.75;2.08;;;24.00;96.70;;;;;;4238665;28;20081;-71
2021/06/20 08:37:47;;;;;;;4.82;2.03;;;24.20;96.80;;;;;;4245558;27;20059;-74
2021/06/20 08:39:51;;;;;;;8.38;2.05;;;24.40;96.70;;;;;;4245083;27;20054;-71
2021/06/20 08:41:56;;;;;;;7.60;2.03;;;24.40;95.30;;;;;;4245995;28;20104;-73
2021/06/20 08:44:02;;;;;;;9.63;2.33;;;24.30;94.00;;;;;;4228045;28;20043;-73
2021/06/20 08:46:06;;;;;;;9.32;2.03;;;24.40;95.30;;;;;;4245867;28;20069;-75
2021/06/20 08:48:12;;;;;;;8.48;2.50;;;24.50;95.30;;;;;;4224004;28;20528;-73
2021/06/20 08:50:19;;;;;;;7.50;1.83;;;24.40;95.00;;;;;;4244171;28;20055;-75
2021/06/20 08:52:22;;;;;;;8.63;1.90;;;24.30;95.40;;;;;;4245028;27;20419;-74
2021/06/20 08:54:26;;;;;;;6.30;1.23;;;24.30;95.30;;;;;;4245416;27;20062;-73
2021/06/20 08:56:29;;;;;;;7.53;1.67;;;24.50;94.70;;;;;;4248263;27;20046;-74
2021/06/20 08:58:34;;;;;;;5.53;1.50;;;24.60;93.70;;;;;;4243914;27;20056;-72
2021/06/20 09:00:37;;;;;;;3.22;1.60;;;24.70;94.40;;;;;;4248242;27;20152;-74
2021/06/20 09:02:40;;;;;;;4.05;1.52;;;24.90;95.40;;;;;;4248254;27;20465;-75
2021/06/20 09:04:54;;;;;;;6.40;1.67;;;24.70;92.70;;;;;;4250158;27;20055;-74
2021/06/20 09:07:01;;;;;;;5.50;1.70;;;24.70;93.00;;;;;;4252516;27;20402;-73
2021/06/20 09:09:08;;;;;;;9.07;1.88;;;24.40;93.30;;;;;;4252217;27;20079;-74
2021/06/20 09:11:22;;;;;;;5.60;1.77;;;24.70;93.50;;;;;;4250033;27;20051;-73
2021/06/20 09:13:32;;;;;;;7.32;1.70;;;24.80;92.70;;;;;;4245963;27;20047;-74
2021/06/20 09:15:37;;;;;;;6.70;1.63;;;24.70;92.30;;;;;;4234225;27;20069;-74
2021/06/20 09:17:46;;;;;;;;;;;24.80;93.70;;;;;;4248468;27;20047;-74
2021/06/20 09:19:56;;;;;;;4.88;1.80;;;24.80;92.30;;;;;;4247893;27;19945;-74
2021/06/20 09:22:08;;;;;;;5.72;1.65;;;24.40;93.10;;;;;;4248525;27;20054;-72
2021/06/20 09:24:17;;;;;;;8.18;1.75;;;24.40;92.50;;;;;;4247660;27;20054;-74
2021/06/20 09:26:33;;;;;;;5.60;1.92;;;24.40;92.20;;;;;;4241600;27;20047;-75
2021/06/20 09:28:36;;;;;;;8.13;1.90;;;24.20;92.50;;;;;;4247992;27;20131;-73
2021/06/20 09:30:44;;;;;;;4.85;1.50;;;24.40;93.30;;;;;;4230179;28;20113;-76
2021/06/20 09:32:52;;;;;;;4.10;1.63;;;24.50;92.40;;;;;;4246446;27;20452;-74
2021/06/20 09:34:59;;;;;;;4.00;1.63;;;24.70;92.00;;;;;;4246208;27;20051;-73
2021/06/20 09:37:04;;;;;;;6.50;1.50;;;24.80;92.50;;;;;;4247915;27;20051;-74
2021/06/20 09:39:18;;;;;;;4.93;1.65;;;24.80;91.70;;;;;;4247319;27;20508;-76
2021/06/20 09:41:21;;;;;;;4.90;1.48;;;24.90;92.70;;;;;;4247748;27;20051;-74
2021/06/20 09:43:24;;;;;;;3.53;1.30;;;25.00;91.90;;;;;;4248046;27;20051;-73
2021/06/20 09:45:29;;;;;;;4.97;1.40;;;25.20;91.10;;;;;;4249153;27;20059;-73
2021/06/20 09:47:39;;;;;;;6.55;1.70;;;25.20;91.20;;;;;;4231966;27;20060;-77
2021/06/20 09:49:44;;;;;;;3.65;1.85;;;25.20;91.70;;;;;;4250648;27;20096;-73
2021/06/20 09:51:53;;;;;;;6.60;1.67;;;25.40;91.80;;;;;;4252585;27;20400;-75
2021/06/20 09:53:58;;;;;;;4.03;1.92;;;25.50;92.20;;;;;;4251897;27;20599;-73
2021/06/20 09:56:17;;;;;;;4.05;1.60;;;25.50;92.00;;;;;;4250721;27;20055;-72
2021/06/20 09:58:28;;;;;;;4.88;1.10;;;25.40;91.20;;;;;;4198601;28;20061;-73
2021/06/20 10:00:41;;;;;;;6.53;1.40;;;25.40;90.30;;;;;;4243658;27;20055;-73
2021/06/20 10:02:47;;;;;;;5.10;1.80;;;25.50;91.00;;;;;;4250231;27;20049;-72
2021/06/20 10:04:50;;;;;;;;;;;25.60;91.00;;;;;;4231535;27;20444;-72
2021/06/20 10:06:54;;;;;;;11.27;3.95;;;25.80;91.50;;;;;;4248687;27;19923;-75
2021/06/20 10:08:58;;;;;;;6.80;2.95;;;25.80;91.10;;;;;;4249613;27;20081;-74
2021/06/20 10:11:02;;;;;;;7.47;3.88;;;25.90;90.20;;;;;;4234015;27;20109;-73
2021/06/20 10:13:05;;;;;;;5.80;2.28;;;25.90;90.70;;;;;;4253085;27;20053;-74
2021/06/20 10:15:14;;;;;;;5.38;1.88;;;26.00;90.70;;;;;;4247972;27;20085;-78
2021/06/20 10:17:25;;;;;;;4.07;1.38;;;25.90;90.60;;;;;;4232926;27;20044;-76
2021/06/20 10:19:30;;;;;;;6.43;1.60;;;26.00;89.00;;;;;;4248949;27;20050;-77
2021/06/20 10:21:36;;;;;;;5.05;1.98;;;26.10;90.50;;;;;;4248477;27;20055;-75
2021/06/20 10:23:39;;;;;;;3.60;1.73;;;26.00;88.50;;;;;;4230917;28;20075;-77
2021/06/20 10:25:44;;;;;;;7.75;2.90;;;25.80;87.60;;;;;;4241335;27;20070;-77
2021/06/20 10:27:57;;;;;;;6.00;1.83;;;25.70;89.30;;;;;;4240565;27;20421;-79
2021/06/20 10:30:04;;;;;;;4.97;2.45;;;26.00;89.40;;;;;;4242473;27;20088;-75
2021/06/20 10:32:18;;;;;;;3.53;1.73;;;26.10;88.00;;;;;;4246931;27;20051;-78
2021/06/20 10:34:24;;;;;;;4.05;1.50;;;25.90;88.40;;;;;;4246317;27;20071;-75
2021/06/20 10:36:27;;;;;;;8.07;2.53;;;26.10;88.80;;;;;;4244019;27;20448;-74
2021/06/20 10:38:32;;;;;;;6.10;2.17;;;26.10;89.40;;;;;;4257548;27;20054;-76
2021/06/20 10:40:40;;;;;;;3.25;1.73;;;26.30;89.30;;;;;;4260643;27;20063;-73
2021/06/20 10:42:45;;;;;;;7.20;3.50;;;26.40;87.30;;;;;;4261403;27;20057;-75
2021/06/20 10:44:50;;;;;;;5.65;1.20;;;26.60;89.00;;;;;;4242285;28;20051;-74
2021/06/20 10:46:54;;;;;;;4.90;1.90;;;26.40;85.00;;;;;;4249927;27;20049;-72
2021/06/20 10:48:58;;;;;;;3.35;1.88;;;26.50;84.80;;;;;;4246727;27;20055;-74